메인 페이지
METAR-TAF:

METAR-TAF

공항 :

University of Oklahoma Westheimer Airport

Norman, 오클라호마, 미국

위도: 35-13N, 경도: 097-27W, 고도: 357m

현재 날씨관측

예보는 33분 전, 22:46시(UTC)에 발표되었습니다.
동북동9kt
온도 31°C
습도 59%
기압 1008 hPa
시정: 16.1km
고도 15000ft 상공 구름 조금

METAR: KOUN 262246Z 07009KT 10SM FEW150 31/22 A2977

시각: 18:19 (23:19 UTC)

예보

예보는 5 시간 52분 전, 17:27시(UTC)에 발표되었습니다.
예보 대상 시간: 26일 18시부터 27일 18시까지 (UTC)
남동7kt
시정: 10km
고도 25000ft 상공 구름 조금

TAF: KOUN 261727Z 2618/2718 13007KT P6SM FEW250

4,000개 이상의 공항 관측 자료 및 예보 (METAR 및 TAF 보고).

지도상에서 검색 가능한 기상관측소가 노란 점과 빨간 점으로 표시되어 있습니다.

기상관측소 명을 보려면 표시 위로 마우스를 이동하세요.

날씨 관측과 예보를 보려면 클릭하세요.

지도 변경 : 확대하려면 엑스 표시가 있는 녹색 버튼, 축소하려면 빼기 표시가 있는 녹색 버튼, 다음 페이지의 지도를 보려면 녹색 화살표를 클릭하세요.


METAR-TAF: